Accueil
METAR-TAF:

METAR-TAF

Aéroports :

Sabadell, Espagne

latitude: 41-31N, longitude: 002-06E, altitude: 250 m

Observation

Le bulletin a été fait il y a 21 minutes, à 07:30 UTC
Vent 7 kt de ouest, variant entre ouest/sud-ouest et nord-ouest
Température 23°C
Humidité 69%
Pression 1021 hPa
Visibilité 10 km ou plus
Quelques nuages à une hauteur de 2500 ft

METAR: LELL 180730Z 28007KT 250V320 9999 FEW025 23/17 Q1021

Heure: 09:51 (07:51 UTC)

Prévision

Le bulletin a été fait il y a 5 heures et 51 minutes, à 02:00 UTC
Prévision valable du 18 à 03 UTC au 19 à 03 UTC
Vent 3 kt de direction variable
Visibilité 10 km ou plus
Quelques nuages à une hauteur de 3000 ft
Evoluant progressivement
du 18 à 08 UTC au 18 à 10 UTC
Vent 10 kt de sud/sud-est
Evoluant progressivement
du 18 à 18 UTC au 18 à 21 UTC
Vent 4 kt de direction variable

TAF: LELL 180200Z 1803/1903 VRB03KT 9999 FEW030 TX28/1812Z TN16/1805Z BECMG 1808/1810 15010KT BECMG 1818/1821 VRB04KT

Observations et prévisions météorologiques de plus de 4000 aéroports (messages METAR et TAF).

Les stations disponibles sont représentées par des disques jaunes et rouges sur la carte.

Passer la souris dessus pour voir le nom de la station.

Cliquer dessus pour voir les observations et prévisions météorologiques.

Pour changer de carte: cliquez sur les boutons verts avec une croix noire pour zoomer, sur le bouton vert avec un tiret pour effectuer un zoom arrière, ou sur les flèches vertes pour les cartes adjacentes.


METAR-TAF: